createdAt,value
2019-03-31T00:00:34.288Z,104.37
2019-03-31T00:03:07.217Z,95.93
2019-03-31T00:05:38.647Z,105.43
2019-03-31T00:08:09.844Z,112.17
2019-03-31T00:10:41.194Z,110.23
2019-03-31T00:13:14.110Z,99.13
2019-03-31T00:15:46.178Z,99.20
2019-03-31T00:18:17.354Z,101.77
2019-03-31T00:20:48.836Z,104.50
2019-03-31T00:23:20.230Z,109.37
2019-03-31T00:25:52.570Z,102.70
2019-03-31T00:28:23.803Z,104.37
2019-03-31T00:30:55.697Z,113.33
2019-03-31T00:33:29.120Z,121.30
2019-03-31T00:36:00.340Z,115.50
2019-03-31T00:38:31.495Z,125.00
2019-03-31T00:41:02.763Z,114.87
2019-03-31T00:43:33.934Z,117.57
2019-03-31T00:46:05.252Z,122.77
2019-03-31T00:48:36.642Z,114.70
2019-03-31T00:51:08.484Z,118.10
2019-03-31T00:53:39.653Z,130.37
2019-03-31T00:56:10.911Z,115.50
2019-03-31T00:58:42.142Z,112.23
2019-03-31T01:01:47.607Z,123.30
2019-03-31T01:04:23.244Z,123.77
2019-03-31T01:07:07.281Z,116.70
2019-03-31T01:09:38.760Z,116.50
2019-03-31T01:12:10.879Z,110.13
2019-03-31T01:14:43.534Z,125.97
2019-03-31T01:17:18.558Z,137.47
2019-03-31T01:19:50.549Z,129.33
2019-03-31T01:22:23.948Z,125.20
2019-03-31T01:24:55.827Z,123.13
2019-03-31T01:27:27.055Z,121.43
2019-03-31T01:29:59.589Z,120.07
2019-03-31T01:32:30.981Z,136.60
2019-03-31T01:35:02.760Z,139.37
2019-03-31T01:37:33.936Z,135.77
2019-03-31T01:40:08.968Z,139.67
2019-03-31T01:42:40.328Z,134.27
2019-03-31T01:45:13.490Z,142.17
2019-03-31T01:47:44.774Z,124.80
2019-03-31T01:50:16.620Z,131.27
2019-03-31T01:52:47.924Z,137.30
2019-03-31T01:55:19.207Z,130.73
2019-03-31T01:57:50.632Z,130.45
2019-03-31T02:00:33.642Z,147.83
2019-03-31T02:03:04.992Z,129.10
2019-03-31T02:05:36.364Z,123.47
2019-03-31T02:08:07.768Z,128.60
2019-03-31T02:10:38.917Z,121.07
2019-03-31T02:13:10.259Z,103.07
2019-03-31T02:15:41.554Z,108.97
2019-03-31T02:18:12.729Z,99.97
2019-03-31T02:20:43.862Z,91.53
2019-03-31T02:23:16.529Z,101.70
2019-03-31T02:25:47.841Z,88.93
2019-03-31T02:28:18.980Z,95.80
2019-03-31T02:30:50.228Z,93.43
2019-03-31T02:33:21.330Z,81.97
2019-03-31T02:35:52.558Z,91.47
2019-03-31T02:38:23.705Z,78.17
2019-03-31T02:40:55.023Z,99.93
2019-03-31T02:43:26.320Z,90.13
2019-03-31T02:45:57.536Z,97.43
2019-03-31T02:48:28.777Z,104.10
2019-03-31T02:51:00.324Z,92.80
2019-03-31T02:53:31.774Z,99.67
2019-03-31T02:56:04.304Z,106.20
2019-03-31T02:58:37.111Z,88.57
2019-03-31T03:01:09.279Z,96.40
2019-03-31T03:03:40.668Z,102.50
2019-03-31T03:06:14.300Z,100.37
2019-03-31T03:08:49.576Z,106.80
2019-03-31T03:11:22.893Z,98.30
2019-03-31T03:13:56.026Z,98.33
2019-03-31T03:16:27.626Z,99.03
2019-03-31T03:18:58.871Z,101.30
2019-03-31T03:21:30.117Z,98.10
2019-03-31T03:24:01.628Z,108.23
2019-03-31T03:26:33.025Z,106.03
2019-03-31T03:29:04.338Z,114.97
2019-03-31T03:31:35.544Z,115.70
2019-03-31T03:34:06.831Z,104.27
2019-03-31T03:36:38.009Z,101.73
2019-03-31T03:39:09.864Z,113.20
2019-03-31T03:41:41.103Z,110.73
2019-03-31T03:44:12.224Z,119.73
2019-03-31T03:46:43.434Z,116.83
2019-03-31T03:49:14.821Z,120.43
2019-03-31T03:51:46.285Z,114.67
2019-03-31T03:54:17.479Z,119.70
2019-03-31T03:56:48.777Z,128.13
2019-03-31T03:59:19.937Z,121.97
2019-03-31T04:01:51.141Z,120.83
2019-03-31T04:04:22.326Z,115.37
2019-03-31T04:06:53.542Z,102.40
2019-03-31T04:09:24.704Z,102.93
2019-03-31T04:11:55.833Z,115.63
2019-03-31T04:14:27.038Z,126.00
2019-03-31T04:16:58.246Z,122.83
2019-03-31T04:19:29.745Z,111.80
2019-03-31T04:22:00.974Z,124.33
2019-03-31T04:24:34.099Z,112.10
2019-03-31T04:27:05.472Z,109.27
2019-03-31T04:29:36.629Z,119.97
2019-03-31T04:32:07.801Z,106.53
2019-03-31T04:34:38.917Z,106.23
2019-03-31T04:37:10.210Z,115.17
2019-03-31T04:39:41.472Z,103.33
2019-03-31T04:42:12.676Z,101.53
2019-03-31T04:44:43.912Z,107.60
2019-03-31T04:47:15.728Z,110.47
2019-03-31T04:49:48.075Z,97.23
2019-03-31T04:52:19.229Z,95.73
2019-03-31T04:54:52.322Z,86.80
2019-03-31T04:57:23.805Z,89.20
2019-03-31T04:59:55.172Z,84.97
2019-03-31T05:02:27.394Z,74.50
2019-03-31T05:04:59.149Z,87.60
2019-03-31T05:07:30.264Z,80.53
2019-03-31T05:10:01.444Z,81.83
2019-03-31T05:12:32.724Z,74.47
2019-03-31T05:15:03.978Z,68.77
2019-03-31T05:17:35.906Z,80.77
2019-03-31T05:20:07.521Z,74.10
2019-03-31T05:22:38.697Z,74.87
2019-03-31T05:25:09.895Z,75.67
2019-03-31T05:27:41.321Z,64.60
2019-03-31T05:30:12.549Z,68.00
2019-03-31T05:32:43.754Z,73.93
2019-03-31T05:35:15.069Z,60.67
2019-03-31T05:37:51.052Z,61.43
2019-03-31T05:40:19.121Z,65.83
2019-03-31T05:42:50.357Z,63.07
2019-03-31T05:45:21.685Z,48.60
2019-03-31T05:47:52.900Z,45.77
2019-03-31T05:50:23.999Z,52.43
2019-03-31T05:52:58.956Z,50.23
2019-03-31T05:55:32.116Z,47.83
2019-03-31T05:58:03.393Z,51.57
2019-03-31T06:00:38.956Z,47.90
2019-03-31T06:03:10.182Z,49.63
2019-03-31T06:05:41.416Z,42.90
2019-03-31T06:08:15.620Z,39.57
2019-03-31T06:10:46.783Z,41.70
2019-03-31T06:13:17.941Z,42.93
2019-03-31T06:15:49.293Z,42.80
2019-03-31T06:18:20.531Z,36.73
2019-03-31T06:20:52.011Z,31.40
2019-03-31T06:23:23.232Z,32.97
2019-03-31T06:25:54.454Z,29.70
2019-03-31T06:28:25.773Z,34.10
2019-03-31T06:30:57.104Z,29.57
2019-03-31T06:33:28.255Z,31.50
2019-03-31T06:35:59.442Z,25.00
2019-03-31T06:38:30.618Z,24.23
2019-03-31T06:41:02.140Z,30.00
2019-03-31T06:43:33.269Z,25.20
2019-03-31T06:46:04.702Z,25.43
2019-03-31T06:48:36.084Z,25.77
2019-03-31T06:51:07.597Z,30.03
2019-03-31T06:53:38.736Z,26.10
2019-03-31T06:56:13.076Z,30.53
2019-03-31T06:58:44.208Z,31.23
2019-03-31T07:01:15.455Z,29.73
2019-03-31T07:03:49.169Z,25.07
2019-03-31T07:06:20.426Z,24.63
2019-03-31T07:08:51.560Z,23.13
2019-03-31T07:11:22.865Z,21.97
2019-03-31T07:13:54.016Z,20.60
2019-03-31T07:16:25.211Z,25.57
2019-03-31T07:18:59.277Z,18.40
2019-03-31T07:21:33.427Z,16.53
2019-03-31T07:24:04.702Z,19.67
2019-03-31T07:26:38.129Z,20.20
2019-03-31T07:29:09.449Z,15.73
2019-03-31T07:31:40.596Z,18.30
2019-03-31T07:34:11.905Z,20.60
2019-03-31T07:36:46.614Z,18.50
2019-03-31T07:39:18.170Z,19.50
2019-03-31T07:41:49.653Z,22.30
2019-03-31T07:44:20.973Z,27.60
2019-03-31T07:46:52.179Z,19.93
2019-03-31T07:49:23.386Z,21.37
2019-03-31T07:51:54.516Z,26.97
2019-03-31T07:54:25.827Z,17.30
2019-03-31T07:56:56.986Z,26.03
2019-03-31T07:59:28.461Z,27.20
2019-03-31T08:01:59.803Z,20.70
2019-03-31T08:04:31.058Z,27.80
2019-03-31T08:07:02.279Z,19.77
2019-03-31T08:09:33.465Z,12.40
2019-03-31T08:12:04.702Z,17.17
2019-03-31T08:14:37.865Z,15.87
2019-03-31T08:17:09.078Z,18.73
2019-03-31T08:19:43.406Z,14.90
2019-03-31T08:22:14.594Z,23.40
2019-03-31T08:24:45.767Z,18.70
2019-03-31T08:27:17.505Z,13.73
2019-03-31T08:29:59.893Z,14.13
2019-03-31T08:32:21.596Z,16.53
2019-03-31T08:34:52.975Z,18.30
2019-03-31T08:37:24.214Z,15.00
2019-03-31T08:39:58.266Z,14.13
2019-03-31T08:42:29.556Z,10.87
2019-03-31T08:45:00.798Z,11.40
2019-03-31T08:47:31.960Z,10.33
2019-03-31T08:50:03.498Z,7.07
2019-03-31T08:52:34.679Z,9.80
2019-03-31T08:55:06.400Z,10.53
2019-03-31T08:57:37.669Z,9.07
2019-03-31T09:00:12.553Z,17.23
2019-03-31T09:02:45.933Z,12.30
2019-03-31T09:05:17.471Z,16.53
2019-03-31T09:07:53.463Z,10.30
2019-03-31T09:10:24.698Z,12.23
2019-03-31T09:12:56.009Z,11.87
2019-03-31T09:15:27.124Z,8.17
2019-03-31T09:17:58.736Z,14.28
2019-03-31T09:20:30.110Z,12.17
2019-03-31T09:23:01.264Z,13.63
2019-03-31T09:25:34.332Z,8.07
2019-03-31T09:28:05.636Z,5.97
2019-03-31T09:30:38.948Z,8.27
2019-03-31T09:33:10.108Z,6.47
2019-03-31T09:35:41.277Z,9.23
2019-03-31T09:38:12.675Z,5.53
2019-03-31T09:40:45.804Z,2.80
2019-03-31T09:43:19.853Z,2.93
2019-03-31T09:45:54.132Z,5.60
2019-03-31T09:48:25.340Z,2.70
2019-03-31T09:50:56.766Z,2.40
2019-03-31T09:53:28.075Z,4.57
2019-03-31T09:56:00.837Z,4.30
2019-03-31T09:58:32.016Z,4.90
2019-03-31T10:01:08.112Z,6.80
2019-03-31T10:03:39.521Z,5.10
2019-03-31T10:06:13.124Z,4.83
2019-03-31T10:08:47.303Z,4.87
2019-03-31T10:11:18.485Z,3.47
2019-03-31T10:13:49.763Z,6.57
2019-03-31T10:16:20.965Z,4.33
2019-03-31T10:18:52.477Z,6.20
2019-03-31T10:21:26.845Z,5.20
2019-03-31T10:23:59.577Z,3.63
2019-03-31T10:26:32.280Z,4.00
2019-03-31T10:29:03.913Z,5.90
2019-03-31T10:31:37.814Z,5.53
2019-03-31T10:34:09.122Z,6.80
2019-03-31T10:36:44.808Z,6.30
2019-03-31T10:39:13.776Z,3.97
2019-03-31T10:41:45.107Z,3.23
2019-03-31T10:44:21.086Z,7.60
2019-03-31T10:46:58.593Z,8.13
2019-03-31T10:49:41.073Z,10.57
2019-03-31T10:52:09.932Z,5.30
2019-03-31T10:54:41.238Z,9.63
2019-03-31T10:57:18.408Z,4.00
2019-03-31T10:59:53.965Z,8.20
2019-03-31T11:02:30.184Z,2.20
2019-03-31T11:05:07.817Z,3.33
2019-03-31T11:07:39.335Z,7.10
2019-03-31T11:10:10.851Z,4.60
2019-03-31T11:12:42.080Z,5.60
2019-03-31T11:15:13.474Z,7.00
2019-03-31T11:17:46.857Z,8.10
2019-03-31T11:20:20.503Z,5.27
2019-03-31T11:22:59.203Z,5.97
2019-03-31T11:25:30.480Z,3.63
2019-03-31T11:28:02.177Z,12.13
2019-03-31T11:30:33.639Z,9.73
2019-03-31T11:33:07.449Z,4.77
2019-03-31T11:35:38.311Z,4.60
2019-03-31T11:38:09.620Z,3.63
2019-03-31T11:40:40.880Z,4.80
2019-03-31T11:43:12.115Z,7.17
2019-03-31T11:45:45.036Z,6.83
2019-03-31T11:48:16.324Z,6.53
2019-03-31T11:50:47.661Z,7.20
2019-03-31T11:53:18.982Z,5.50
2019-03-31T11:55:50.345Z,6.80
2019-03-31T11:58:21.696Z,7.57
2019-03-31T12:00:55.712Z,6.93
2019-03-31T12:03:30.639Z,4.30
2019-03-31T12:06:00.067Z,9.00
2019-03-31T12:08:31.358Z,7.53
2019-03-31T12:11:02.705Z,5.40
2019-03-31T12:13:36.984Z,7.53
2019-03-31T12:16:08.321Z,13.00
2019-03-31T12:18:39.687Z,5.70
2019-03-31T12:21:12.537Z,3.07
2019-03-31T12:23:44.086Z,10.50
2019-03-31T12:26:15.882Z,4.67
2019-03-31T12:28:49.432Z,9.83
2019-03-31T12:31:21.725Z,7.80
2019-03-31T12:33:52.898Z,7.67
2019-03-31T12:36:26.029Z,7.40
2019-03-31T12:39:00.271Z,4.73
2019-03-31T12:41:33.139Z,8.20
2019-03-31T12:44:07.214Z,5.70
2019-03-31T12:46:38.425Z,6.30
2019-03-31T12:49:09.765Z,5.83
2019-03-31T12:51:42.522Z,5.77
2019-03-31T12:54:13.943Z,6.10
2019-03-31T12:56:45.225Z,7.00
2019-03-31T12:59:17.702Z,6.47
2019-03-31T13:04:19.061Z,8.03
2019-03-31T13:06:53.359Z,7.70
2019-03-31T13:09:24.592Z,14.40
2019-03-31T13:11:56.149Z,5.87
2019-03-31T13:14:27.599Z,8.43
2019-03-31T13:17:01.529Z,9.40
2019-03-31T13:19:32.061Z,7.53
2019-03-31T13:22:03.491Z,7.53
2019-03-31T13:24:42.248Z,3.63
2019-03-31T13:27:18.721Z,8.07
2019-03-31T13:29:49.976Z,4.97
2019-03-31T13:32:21.589Z,4.83
2019-03-31T13:34:52.828Z,4.87
2019-03-31T13:37:24.220Z,5.80
2019-03-31T13:39:55.833Z,6.67
2019-03-31T13:42:27.257Z,11.40
2019-03-31T13:44:58.462Z,8.63
2019-03-31T13:47:29.886Z,9.83
2019-03-31T13:50:01.276Z,8.70
2019-03-31T13:52:32.614Z,5.60
2019-03-31T13:55:04.321Z,5.07
2019-03-31T13:57:37.249Z,8.30
2019-03-31T14:00:11.169Z,5.83
2019-03-31T14:02:42.775Z,7.53
2019-03-31T14:05:14.257Z,10.50
2019-03-31T14:07:46.138Z,4.30
2019-03-31T14:10:21.290Z,5.47
2019-03-31T14:12:52.877Z,4.90
2019-03-31T14:15:24.577Z,7.00
2019-03-31T14:17:56.152Z,8.77
2019-03-31T14:20:27.235Z,10.50
2019-03-31T14:23:06.373Z,11.40
2019-03-31T14:25:37.888Z,7.63
2019-03-31T14:28:09.338Z,4.20
2019-03-31T14:30:40.618Z,6.53
2019-03-31T14:33:20.488Z,10.10
2019-03-31T14:35:51.872Z,5.10
2019-03-31T14:38:23.164Z,9.23
2019-03-31T14:40:54.376Z,7.97
2019-03-31T14:43:27.988Z,5.60
2019-03-31T14:45:58.806Z,4.40
2019-03-31T14:48:30.082Z,6.33
2019-03-31T14:51:03.745Z,7.00
2019-03-31T14:53:35.069Z,5.23
2019-03-31T14:56:06.526Z,11.90
2019-03-31T14:58:37.935Z,9.03
2019-03-31T15:01:09.362Z,6.23
2019-03-31T15:03:49.723Z,3.30
2019-03-31T15:06:24.518Z,2.87
2019-03-31T15:08:56.227Z,5.60
2019-03-31T15:11:27.989Z,5.10
2019-03-31T15:14:02.623Z,4.30
2019-03-31T15:16:48.601Z,5.93
2019-03-31T15:19:33.327Z,6.90
2019-03-31T15:22:05.198Z,1.90
2019-03-31T15:24:40.123Z,5.40
2019-03-31T15:27:12.336Z,5.70
2019-03-31T15:29:48.377Z,6.00
2019-03-31T15:32:22.328Z,5.10
2019-03-31T15:34:57.569Z,6.37
2019-03-31T15:37:34.900Z,2.53
2019-03-31T15:40:22.211Z,4.80
2019-03-31T15:42:56.893Z,5.73
2019-03-31T15:45:31.555Z,3.50
2019-03-31T15:48:06.119Z,4.90
2019-03-31T15:50:37.815Z,4.07
2019-03-31T15:53:17.348Z,4.90
2019-03-31T15:55:58.165Z,5.00
2019-03-31T15:58:32.328Z,5.87
2019-03-31T16:01:05.605Z,7.17
2019-03-31T16:03:38.486Z,5.20
2019-03-31T16:06:10.103Z,4.50
2019-03-31T16:08:41.375Z,3.73
2019-03-31T16:11:14.521Z,5.13
2019-03-31T16:13:46.545Z,3.93
2019-03-31T16:16:19.883Z,8.40
2019-03-31T16:18:53.453Z,4.27
2019-03-31T16:21:30.138Z,10.37
2019-03-31T16:24:02.812Z,4.00
2019-03-31T16:26:36.963Z,2.97
2019-03-31T16:29:16.488Z,3.10
2019-03-31T16:31:50.597Z,8.90
2019-03-31T16:34:28.050Z,8.73
2019-03-31T16:37:03.504Z,9.13
2019-03-31T16:39:37.998Z,5.63
2019-03-31T16:42:13.296Z,2.87
2019-03-31T16:44:57.534Z,3.50
2019-03-31T16:47:18.915Z,3.03
2019-03-31T16:49:55.369Z,6.90
2019-03-31T16:52:31.057Z,6.83
2019-03-31T16:55:05.870Z,6.23
2019-03-31T16:57:38.072Z,6.47
2019-03-31T17:00:09.623Z,4.10
2019-03-31T17:02:40.778Z,7.23
2019-03-31T17:05:23.571Z,10.60
2019-03-31T17:08:16.329Z,3.03
2019-03-31T17:10:55.412Z,4.10
2019-03-31T17:13:30.997Z,2.23
2019-03-31T17:16:08.982Z,2.07
2019-03-31T17:18:44.473Z,3.40
2019-03-31T17:21:19.326Z,4.63
2019-03-31T17:23:53.882Z,4.07
2019-03-31T17:26:24.987Z,7.60
2019-03-31T17:28:57.753Z,3.77
2019-03-31T17:31:30.656Z,6.73
2019-03-31T17:34:08.759Z,7.10
2019-03-31T17:36:39.705Z,3.93
2019-03-31T17:39:10.854Z,7.27
2019-03-31T17:41:52.597Z,11.37
2019-03-31T17:44:25.147Z,6.60
2019-03-31T17:46:56.360Z,9.83
2019-03-31T17:49:30.738Z,10.83
2019-03-31T17:52:03.178Z,7.80
2019-03-31T17:54:34.013Z,8.03
2019-03-31T17:57:05.911Z,11.57
2019-03-31T17:59:36.802Z,10.70
2019-03-31T18:02:11.558Z,13.23
2019-03-31T18:04:42.553Z,7.17
2019-03-31T18:07:13.433Z,8.63
2019-03-31T18:09:44.484Z,12.80
2019-03-31T18:12:18.371Z,4.60
2019-03-31T18:14:51.563Z,9.10
2019-03-31T18:17:25.173Z,11.70
2019-03-31T18:19:59.402Z,5.73
2019-03-31T18:22:31.861Z,7.30
2019-03-31T18:25:02.934Z,12.13
2019-03-31T18:27:35.604Z,6.90
2019-03-31T18:30:06.924Z,10.80
2019-03-31T18:32:39.814Z,7.00
2019-03-31T18:35:10.954Z,8.50
2019-03-31T18:37:41.908Z,18.70
2019-03-31T18:40:15.110Z,11.90
2019-03-31T18:42:51.441Z,12.50
2019-03-31T18:45:22.291Z,6.97
2019-03-31T18:47:55.775Z,9.23
2019-03-31T18:50:26.651Z,9.60
2019-03-31T18:53:03.228Z,8.83
2019-03-31T18:55:43.489Z,8.70
2019-03-31T18:58:27.337Z,14.53
2019-03-31T19:01:18.739Z,8.37
2019-03-31T19:04:27.865Z,9.10
2019-03-31T19:07:31.715Z,11.83
2019-03-31T19:10:27.572Z,9.03
2019-03-31T19:13:26.145Z,9.97
2019-03-31T19:16:19.379Z,7.03
2019-03-31T19:19:18.944Z,10.23
2019-03-31T19:22:15.048Z,8.23
2019-03-31T19:25:10.616Z,11.60
2019-03-31T19:27:59.031Z,8.90
2019-03-31T19:30:42.914Z,13.17
2019-03-31T19:33:35.022Z,16.07
2019-03-31T19:36:28.066Z,12.53
2019-03-31T19:39:37.598Z,9.60
2019-03-31T19:42:27.723Z,14.90
2019-03-31T19:45:31.511Z,12.03
2019-03-31T19:48:40.011Z,6.87
2019-03-31T19:51:19.429Z,9.33
2019-03-31T19:54:15.814Z,10.13
2019-03-31T19:56:59.449Z,7.13
2019-03-31T19:59:51.309Z,9.23
2019-03-31T20:02:48.551Z,7.90
2019-03-31T20:05:46.798Z,8.93
2019-03-31T20:08:36.713Z,7.90
2019-03-31T20:11:21.527Z,7.00
2019-03-31T20:14:03.935Z,3.80
2019-03-31T20:17:02.712Z,9.87
2019-03-31T20:19:54.531Z,5.47
2019-03-31T20:22:36.998Z,4.87
2019-03-31T20:25:52.354Z,10.87
2019-03-31T20:28:51.681Z,5.23
2019-03-31T20:31:49.211Z,11.80
2019-03-31T20:34:33.777Z,5.67
2019-03-31T20:37:24.731Z,10.50
2019-03-31T20:40:09.399Z,12.40
2019-03-31T20:43:03.382Z,4.50
2019-03-31T20:45:35.894Z,4.73
2019-03-31T20:48:10.585Z,3.63
2019-03-31T20:50:41.597Z,10.57
2019-03-31T20:53:14.310Z,7.23
2019-03-31T20:55:45.260Z,12.00
2019-03-31T20:58:16.636Z,2.90
2019-03-31T21:00:48.675Z,9.17
2019-03-31T21:03:22.622Z,5.57
2019-03-31T21:05:55.838Z,9.23
2019-03-31T21:08:33.584Z,6.77
2019-03-31T21:11:06.403Z,6.97
2019-03-31T21:13:37.489Z,4.67
2019-03-31T21:16:12.618Z,13.83
2019-03-31T21:19:19.163Z,8.53
2019-03-31T21:21:33.349Z,15.53
2019-03-31T21:24:05.775Z,24.83
2019-03-31T21:26:36.905Z,25.67
2019-03-31T21:29:11.596Z,4.10
2019-03-31T21:31:42.841Z,2.60
2019-03-31T21:34:13.831Z,5.00
2019-03-31T21:36:44.929Z,30.33
2019-03-31T21:39:22.378Z,16.47
2019-03-31T21:41:56.480Z,7.23
2019-03-31T21:44:29.164Z,8.50
2019-03-31T21:47:02.312Z,4.07
2019-03-31T21:49:33.452Z,7.03
2019-03-31T21:52:04.920Z,13.60
2019-03-31T21:54:37.570Z,6.10
2019-03-31T21:57:08.562Z,26.90
2019-03-31T21:59:40.035Z,21.47
2019-03-31T22:02:14.879Z,4.97
2019-03-31T22:04:48.404Z,11.10
2019-03-31T22:07:19.026Z,17.93
2019-03-31T22:09:49.652Z,13.13
2019-03-31T22:12:20.389Z,10.00
2019-03-31T22:14:53.596Z,11.67
2019-03-31T22:17:24.244Z,9.87
2019-03-31T22:19:54.867Z,64.53
2019-03-31T22:22:25.553Z,23.20
2019-03-31T22:24:56.447Z,11.10
2019-03-31T22:27:30.095Z,30.27
2019-03-31T22:30:00.754Z,11.53
2019-03-31T22:32:33.095Z,7.90
2019-03-31T22:35:03.853Z,7.40
2019-03-31T22:37:35.787Z,20.77
2019-03-31T22:40:06.584Z,12.93
2019-03-31T22:42:37.185Z,12.50
2019-03-31T22:45:11.162Z,10.13
2019-03-31T22:47:41.883Z,6.47
2019-03-31T22:50:12.614Z,14.47
2019-03-31T22:52:43.232Z,16.27
2019-03-31T22:55:14.031Z,18.80
2019-03-31T22:57:44.740Z,5.97
2019-03-31T23:00:21.501Z,7.60
2019-03-31T23:02:52.106Z,6.67
2019-03-31T23:05:22.878Z,14.30
2019-03-31T23:07:55.738Z,12.50
2019-03-31T23:10:26.742Z,29.93
2019-03-31T23:12:57.449Z,29.00
2019-03-31T23:15:28.886Z,18.60
2019-03-31T23:17:59.590Z,60.77
2019-03-31T23:20:30.352Z,19.30
2019-03-31T23:23:02.614Z,13.37
2019-03-31T23:25:33.226Z,5.00
2019-03-31T23:28:04.191Z,4.57
2019-03-31T23:30:34.854Z,6.40
2019-03-31T23:33:05.549Z,10.63
2019-03-31T23:35:36.344Z,9.23
2019-03-31T23:38:07.078Z,55.93
2019-03-31T23:40:37.707Z,16.13
2019-03-31T23:43:08.314Z,10.30
2019-03-31T23:45:38.955Z,9.23
2019-03-31T23:48:09.589Z,11.83
2019-03-31T23:50:40.240Z,32.30
2019-03-31T23:53:10.955Z,24.30
2019-03-31T23:55:41.612Z,24.23
2019-03-31T23:58:12.348Z,13.93
